KLWS/LWS METAR and TAF weather

Enter ICAO airport designator
Station Type Date Time Source
KLWS METAR 2024/04/15 08:56 UTC NOAA

KLWS 150856Z AUTO 16008KT 10SM CLR 17/07 A2985 RMK AO2 SLP103 T01670067 51013


Station Type Date Time Source
KLWS Decoded METAR 2024/04/15 08:56 UTC NOAA

LEWISTON NEZ PERCE CO AIRPORT , ID, United States (KLWS) 46-22N 117-01W 438M
Apr 15, 2024 - 04:56 AM EDT / 2024.04.15 0856 UTC
Wind: from the SSE (160 degrees) at 9 MPH (8 KT):0
Visibility: 10 mile(s):0
Sky conditions: clear
Temperature: 62.1 F (16.7 C)
Dew Point: 44.1 F (6.7 C)
Relative Humidity: 51%
Pressure (altimeter): 29.85 in. Hg (1010 hPa)
Pressure tendency: 0.04 inches (1.3 hPa) higher than three hours ago
ob: KLWS 150856Z AUTO 16008KT 10SM CLR 17/07 A2985 RMK AO2 SLP103 T01670067 51013
cycle: 9

Station Type Date Time Source
KLWS TAF 2024/04/15 08:36 UTC NOAA